sensor_id;sensor_type;location;lat;lon;timestamp;pressure;altitude;pressure_sealevel;temperature;humidity
79645;BME280;69117;47.148;18.954;2023-08-08T00:00:33;100618.81;;;14.09;100.00
79645;BME280;69117;47.148;18.954;2023-08-08T00:03:35;100625.16;;;14.16;100.00
79645;BME280;69117;47.148;18.954;2023-08-08T00:06:37;100626.66;;;14.10;100.00
79645;BME280;69117;47.148;18.954;2023-08-08T00:09:39;100634.63;;;14.10;100.00
79645;BME280;69117;47.148;18.954;2023-08-08T00:12:41;100621.75;;;13.97;100.00
79645;BME280;69117;47.148;18.954;2023-08-08T00:15:42;100633.13;;;14.08;100.00
79645;BME280;69117;47.148;18.954;2023-08-08T00:18:44;100630.41;;;14.00;100.00
79645;BME280;69117;47.148;18.954;2023-08-08T00:21:46;100636.22;;;14.03;100.00
79645;BME280;69117;47.148;18.954;2023-08-08T00:24:48;100638.88;;;13.95;100.00
79645;BME280;69117;47.148;18.954;2023-08-08T00:27:49;100637.50;;;13.91;100.00
79645;BME280;69117;47.148;18.954;2023-08-08T00:30:51;100636.72;;;13.98;100.00
79645;BME280;69117;47.148;18.954;2023-08-08T00:33:53;100632.94;;;14.01;100.00
79645;BME280;69117;47.148;18.954;2023-08-08T00:36:55;100632.28;;;14.07;100.00
79645;BME280;69117;47.148;18.954;2023-08-08T00:39:56;100627.31;;;14.12;100.00
79645;BME280;69117;47.148;18.954;2023-08-08T00:42:58;100628.78;;;14.07;100.00
79645;BME280;69117;47.148;18.954;2023-08-08T00:46:00;100632.44;;;14.06;100.00
79645;BME280;69117;47.148;18.954;2023-08-08T00:49:02;100634.09;;;14.07;100.00
79645;BME280;69117;47.148;18.954;2023-08-08T00:52:04;100637.06;;;14.04;100.00
79645;BME280;69117;47.148;18.954;2023-08-08T00:55:07;100633.91;;;14.00;100.00
79645;BME280;69117;47.148;18.954;2023-08-08T00:58:10;100640.72;;;14.03;100.00
79645;BME280;69117;47.148;18.954;2023-08-08T01:01:12;100636.56;;;14.00;100.00
79645;BME280;69117;47.148;18.954;2023-08-08T01:04:15;100632.56;;;13.96;100.00
79645;BME280;69117;47.148;18.954;2023-08-08T01:10:38;100653.50;;;13.99;100.00
79645;BME280;69117;47.148;18.954;2023-08-08T01:13:41;100656.47;;;13.96;100.00
79645;BME280;69117;47.148;18.954;2023-08-08T01:16:43;100655.59;;;13.87;100.00
79645;BME280;69117;47.148;18.954;2023-08-08T01:19:45;100656.09;;;13.91;100.00
79645;BME280;69117;47.148;18.954;2023-08-08T01:23:02;100646.81;;;13.87;100.00
79645;BME280;69117;47.148;18.954;2023-08-08T01:26:05;100657.09;;;13.90;100.00
79645;BME280;69117;47.148;18.954;2023-08-08T01:29:07;100665.59;;;13.93;100.00
79645;BME280;69117;47.148;18.954;2023-08-08T01:32:08;100677.88;;;13.94;100.00
79645;BME280;69117;47.148;18.954;2023-08-08T01:35:12;100679.88;;;13.92;100.00
79645;BME280;69117;47.148;18.954;2023-08-08T01:38:20;100682.72;;;13.99;100.00
79645;BME280;69117;47.148;18.954;2023-08-08T01:41:25;100678.53;;;13.96;100.00
79645;BME280;69117;47.148;18.954;2023-08-08T01:44:28;100675.84;;;13.88;100.00
79645;BME280;69117;47.148;18.954;2023-08-08T01:47:30;100682.19;;;13.95;100.00
79645;BME280;69117;47.148;18.954;2023-08-08T01:50:32;100679.19;;;13.90;100.00
79645;BME280;69117;47.148;18.954;2023-08-08T01:53:34;100681.38;;;13.95;100.00
79645;BME280;69117;47.148;18.954;2023-08-08T01:56:35;100680.31;;;13.88;100.00
79645;BME280;69117;47.148;18.954;2023-08-08T01:59:37;100681.13;;;13.80;100.00
79645;BME280;69117;47.148;18.954;2023-08-08T02:02:39;100679.25;;;13.72;100.00
79645;BME280;69117;47.148;18.954;2023-08-08T02:05:41;100679.81;;;13.58;100.00
79645;BME280;69117;47.148;18.954;2023-08-08T02:08:42;100684.56;;;13.46;100.00
79645;BME280;69117;47.148;18.954;2023-08-08T02:11:44;100687.97;;;13.39;100.00
79645;BME280;69117;47.148;18.954;2023-08-08T02:14:45;100694.59;;;13.35;100.00
79645;BME280;69117;47.148;18.954;2023-08-08T02:17:47;100699.41;;;13.21;100.00
79645;BME280;69117;47.148;18.954;2023-08-08T02:20:49;100698.16;;;13.25;100.00
79645;BME280;69117;47.148;18.954;2023-08-08T02:23:50;100696.25;;;13.36;100.00
79645;BME280;69117;47.148;18.954;2023-08-08T02:26:52;100691.97;;;13.43;100.00
79645;BME280;69117;47.148;18.954;2023-08-08T02:29:54;100686.59;;;13.52;100.00
79645;BME280;69117;47.148;18.954;2023-08-08T02:32:56;100698.13;;;13.69;100.00
79645;BME280;69117;47.148;18.954;2023-08-08T02:35:58;100696.47;;;13.68;100.00
79645;BME280;69117;47.148;18.954;2023-08-08T02:38:59;100690.44;;;13.58;100.00
79645;BME280;69117;47.148;18.954;2023-08-08T02:42:01;100704.13;;;13.71;100.00
79645;BME280;69117;47.148;18.954;2023-08-08T02:45:03;100691.81;;;13.62;100.00
79645;BME280;69117;47.148;18.954;2023-08-08T02:48:05;100695.09;;;13.64;100.00
79645;BME280;69117;47.148;18.954;2023-08-08T02:51:07;100692.78;;;13.61;100.00
79645;BME280;69117;47.148;18.954;2023-08-08T02:54:08;100704.25;;;13.62;100.00
79645;BME280;69117;47.148;18.954;2023-08-08T02:57:10;100710.59;;;13.69;100.00
79645;BME280;69117;47.148;18.954;2023-08-08T03:00:13;100700.06;;;13.59;100.00
79645;BME280;69117;47.148;18.954;2023-08-08T03:03:15;100714.69;;;13.63;100.00
79645;BME280;69117;47.148;18.954;2023-08-08T03:06:16;100708.69;;;13.61;100.00
79645;BME280;69117;47.148;18.954;2023-08-08T03:09:18;100723.44;;;13.56;100.00
79645;BME280;69117;47.148;18.954;2023-08-08T03:12:20;100721.25;;;13.51;100.00
79645;BME280;69117;47.148;18.954;2023-08-08T03:15:21;100732.03;;;13.49;100.00
79645;BME280;69117;47.148;18.954;2023-08-08T03:18:23;100729.41;;;13.32;100.00
79645;BME280;69117;47.148;18.954;2023-08-08T03:21:27;100727.19;;;13.27;100.00
79645;BME280;69117;47.148;18.954;2023-08-08T03:24:28;100742.81;;;13.30;100.00
79645;BME280;69117;47.148;18.954;2023-08-08T03:27:30;100746.94;;;13.15;100.00
79645;BME280;69117;47.148;18.954;2023-08-08T03:30:32;100744.28;;;12.97;100.00
79645;BME280;69117;47.148;18.954;2023-08-08T03:33:34;100743.41;;;12.78;100.00
79645;BME280;69117;47.148;18.954;2023-08-08T03:36:35;100756.94;;;12.57;100.00
79645;BME280;69117;47.148;18.954;2023-08-08T03:39:37;100751.38;;;12.51;100.00
79645;BME280;69117;47.148;18.954;2023-08-08T03:42:39;100758.88;;;12.28;100.00
79645;BME280;69117;47.148;18.954;2023-08-08T03:45:40;100748.31;;;12.18;100.00
79645;BME280;69117;47.148;18.954;2023-08-08T03:48:42;100761.69;;;12.26;100.00
79645;BME280;69117;47.148;18.954;2023-08-08T03:51:44;100764.28;;;12.36;100.00
79645;BME280;69117;47.148;18.954;2023-08-08T03:54:46;100772.63;;;12.41;100.00
79645;BME280;69117;47.148;18.954;2023-08-08T03:57:47;100766.28;;;12.52;100.00
79645;BME280;69117;47.148;18.954;2023-08-08T04:00:49;100769.50;;;12.83;100.00
79645;BME280;69117;47.148;18.954;2023-08-08T04:03:51;100768.38;;;13.03;100.00
79645;BME280;69117;47.148;18.954;2023-08-08T04:06:53;100765.50;;;13.15;100.00
79645;BME280;69117;47.148;18.954;2023-08-08T04:09:54;100772.47;;;13.25;100.00
79645;BME280;69117;47.148;18.954;2023-08-08T04:12:56;100778.28;;;13.29;100.00
79645;BME280;69117;47.148;18.954;2023-08-08T04:15:57;100782.00;;;13.36;100.00
79645;BME280;69117;47.148;18.954;2023-08-08T04:18:59;100778.81;;;13.50;100.00
79645;BME280;69117;47.148;18.954;2023-08-08T04:22:01;100778.66;;;13.52;100.00
79645;BME280;69117;47.148;18.954;2023-08-08T04:25:03;100783.34;;;13.58;100.00
79645;BME280;69117;47.148;18.954;2023-08-08T04:28:05;100774.94;;;13.63;100.00
79645;BME280;69117;47.148;18.954;2023-08-08T04:31:07;100781.44;;;13.68;100.00
79645;BME280;69117;47.148;18.954;2023-08-08T04:34:09;100797.97;;;13.80;100.00
79645;BME280;69117;47.148;18.954;2023-08-08T04:37:10;100794.53;;;13.88;100.00
79645;BME280;69117;47.148;18.954;2023-08-08T04:40:12;100797.50;;;13.85;100.00
79645;BME280;69117;47.148;18.954;2023-08-08T04:43:14;100804.50;;;14.12;100.00
79645;BME280;69117;47.148;18.954;2023-08-08T04:46:16;100792.91;;;14.21;100.00
79645;BME280;69117;47.148;18.954;2023-08-08T04:49:17;100803.44;;;14.31;100.00
79645;BME280;69117;47.148;18.954;2023-08-08T04:52:19;100809.00;;;14.46;100.00
79645;BME280;69117;47.148;18.954;2023-08-08T04:55:21;100801.03;;;14.46;100.00
79645;BME280;69117;47.148;18.954;2023-08-08T04:58:22;100808.25;;;14.53;100.00
79645;BME280;69117;47.148;18.954;2023-08-08T05:01:24;100821.94;;;14.66;100.00
79645;BME280;69117;47.148;18.954;2023-08-08T05:04:26;100814.31;;;14.72;100.00
79645;BME280;69117;47.148;18.954;2023-08-08T05:07:27;100814.38;;;14.80;100.00
79645;BME280;69117;47.148;18.954;2023-08-08T05:10:29;100823.81;;;14.82;100.00
79645;BME280;69117;47.148;18.954;2023-08-08T05:13:32;100821.38;;;14.89;100.00
79645;BME280;69117;47.148;18.954;2023-08-08T05:16:34;100819.72;;;14.96;100.00
79645;BME280;69117;47.148;18.954;2023-08-08T05:19:35;100823.75;;;15.08;100.00
79645;BME280;69117;47.148;18.954;2023-08-08T05:22:37;100828.47;;;15.23;100.00
79645;BME280;69117;47.148;18.954;2023-08-08T05:25:40;100828.44;;;15.15;100.00
79645;BME280;69117;47.148;18.954;2023-08-08T05:28:42;100836.44;;;15.23;100.00
79645;BME280;69117;47.148;18.954;2023-08-08T05:31:44;100836.97;;;15.43;100.00
79645;BME280;69117;47.148;18.954;2023-08-08T05:34:45;100831.84;;;15.49;100.00
79645;BME280;69117;47.148;18.954;2023-08-08T05:37:47;100840.00;;;15.56;100.00
79645;BME280;69117;47.148;18.954;2023-08-08T05:40:49;100847.34;;;15.78;100.00
79645;BME280;69117;47.148;18.954;2023-08-08T05:43:51;100841.38;;;16.01;100.00
79645;BME280;69117;47.148;18.954;2023-08-08T05:46:52;100844.69;;;16.19;100.00
79645;BME280;69117;47.148;18.954;2023-08-08T05:49:54;100843.47;;;16.38;100.00
79645;BME280;69117;47.148;18.954;2023-08-08T05:52:56;100853.84;;;16.25;100.00
79645;BME280;69117;47.148;18.954;2023-08-08T05:55:57;100846.34;;;16.20;100.00
79645;BME280;69117;47.148;18.954;2023-08-08T05:58:59;100848.19;;;16.12;100.00
79645;BME280;69117;47.148;18.954;2023-08-08T06:02:01;100848.13;;;16.36;100.00
79645;BME280;69117;47.148;18.954;2023-08-08T06:05:04;100853.13;;;16.39;100.00
79645;BME280;69117;47.148;18.954;2023-08-08T06:08:06;100850.44;;;16.47;100.00
79645;BME280;69117;47.148;18.954;2023-08-08T06:11:12;100858.25;;;16.65;100.00
79645;BME280;69117;47.148;18.954;2023-08-08T06:14:14;100856.22;;;16.76;100.00
79645;BME280;69117;47.148;18.954;2023-08-08T06:17:16;100856.06;;;16.77;100.00
79645;BME280;69117;47.148;18.954;2023-08-08T06:20:18;100861.78;;;17.05;100.00
79645;BME280;69117;47.148;18.954;2023-08-08T06:23:19;100859.50;;;16.94;100.00
79645;BME280;69117;47.148;18.954;2023-08-08T06:26:21;100853.25;;;17.10;100.00
79645;BME280;69117;47.148;18.954;2023-08-08T06:29:23;100845.53;;;17.15;100.00
79645;BME280;69117;47.148;18.954;2023-08-08T06:32:25;100865.81;;;17.32;100.00
79645;BME280;69117;47.148;18.954;2023-08-08T06:35:26;100864.41;;;17.45;100.00
79645;BME280;69117;47.148;18.954;2023-08-08T06:38:28;100867.56;;;17.71;100.00
79645;BME280;69117;47.148;18.954;2023-08-08T06:41:30;100867.66;;;17.55;100.00
79645;BME280;69117;47.148;18.954;2023-08-08T06:44:32;100860.31;;;17.57;100.00
79645;BME280;69117;47.148;18.954;2023-08-08T06:47:34;100871.19;;;17.55;100.00
79645;BME280;69117;47.148;18.954;2023-08-08T06:50:35;100871.91;;;17.72;100.00
79645;BME280;69117;47.148;18.954;2023-08-08T06:53:37;100873.53;;;17.81;100.00
79645;BME280;69117;47.148;18.954;2023-08-08T06:56:39;100874.03;;;18.00;100.00
79645;BME280;69117;47.148;18.954;2023-08-08T06:59:40;100873.06;;;18.01;100.00
79645;BME280;69117;47.148;18.954;2023-08-08T07:02:42;100883.28;;;18.12;100.00
79645;BME280;69117;47.148;18.954;2023-08-08T07:05:44;100869.06;;;17.97;100.00
79645;BME280;69117;47.148;18.954;2023-08-08T07:08:47;100869.78;;;18.28;100.00
79645;BME280;69117;47.148;18.954;2023-08-08T07:11:48;100870.56;;;18.52;100.00
79645;BME280;69117;47.148;18.954;2023-08-08T07:14:50;100865.44;;;18.42;100.00
79645;BME280;69117;47.148;18.954;2023-08-08T07:17:52;100866.25;;;18.81;100.00
79645;BME280;69117;47.148;18.954;2023-08-08T07:20:54;100870.00;;;18.57;100.00
79645;BME280;69117;47.148;18.954;2023-08-08T07:23:55;100869.28;;;18.92;100.00
79645;BME280;69117;47.148;18.954;2023-08-08T07:26:59;100879.78;;;18.64;98.90
79645;BME280;69117;47.148;18.954;2023-08-08T07:30:01;100869.38;;;18.84;96.42
79645;BME280;69117;47.148;18.954;2023-08-08T07:33:04;100882.63;;;19.58;100.00
79645;BME280;69117;47.148;18.954;2023-08-08T07:36:06;100868.78;;;19.55;78.30
79645;BME280;69117;47.148;18.954;2023-08-08T07:39:07;100869.63;;;19.77;78.47
79645;BME280;69117;47.148;18.954;2023-08-08T07:42:09;100871.72;;;19.81;73.57
79645;BME280;69117;47.148;18.954;2023-08-08T07:45:11;100874.31;;;20.46;72.69
79645;BME280;69117;47.148;18.954;2023-08-08T07:48:12;100869.88;;;20.59;69.49
79645;BME280;69117;47.148;18.954;2023-08-08T07:51:14;100860.19;;;20.30;69.53
79645;BME280;69117;47.148;18.954;2023-08-08T07:54:16;100866.34;;;20.52;67.09
79645;BME280;69117;47.148;18.954;2023-08-08T07:57:18;100869.88;;;20.31;70.93
79645;BME280;69117;47.148;18.954;2023-08-08T08:00:19;100873.47;;;20.17;71.63
79645;BME280;69117;47.148;18.954;2023-08-08T08:03:21;100865.34;;;20.32;72.74
79645;BME280;69117;47.148;18.954;2023-08-08T08:06:23;100860.09;;;20.80;71.86
79645;BME280;69117;47.148;18.954;2023-08-08T08:09:25;100876.72;;;20.62;68.73
79645;BME280;69117;47.148;18.954;2023-08-08T08:12:26;100882.31;;;20.61;71.89
79645;BME280;69117;47.148;18.954;2023-08-08T08:15:28;100877.19;;;20.44;70.63
79645;BME280;69117;47.148;18.954;2023-08-08T08:18:30;100882.53;;;20.66;69.78
79645;BME280;69117;47.148;18.954;2023-08-08T08:21:31;100880.63;;;20.59;70.83
79645;BME280;69117;47.148;18.954;2023-08-08T08:24:34;100881.50;;;21.15;72.85
79645;BME280;69117;47.148;18.954;2023-08-08T08:27:36;100878.34;;;20.56;65.39
79645;BME280;69117;47.148;18.954;2023-08-08T08:30:38;100891.75;;;20.56;68.55
79645;BME280;69117;47.148;18.954;2023-08-08T08:33:40;100887.59;;;20.82;70.17
79645;BME280;69117;47.148;18.954;2023-08-08T08:36:47;100891.03;;;20.48;65.15
79645;BME280;69117;47.148;18.954;2023-08-08T08:39:49;100883.00;;;20.48;63.92
79645;BME280;69117;47.148;18.954;2023-08-08T08:42:51;100876.19;;;20.80;65.12
79645;BME280;69117;47.148;18.954;2023-08-08T08:45:54;100887.25;;;20.98;63.38
79645;BME280;69117;47.148;18.954;2023-08-08T08:48:57;100880.34;;;21.31;61.90
79645;BME280;69117;47.148;18.954;2023-08-08T08:51:59;100875.25;;;21.42;62.59
79645;BME280;69117;47.148;18.954;2023-08-08T08:55:06;100888.59;;;21.22;60.91
79645;BME280;69117;47.148;18.954;2023-08-08T08:58:09;100876.06;;;21.43;61.35
79645;BME280;69117;47.148;18.954;2023-08-08T09:01:11;100876.66;;;21.38;58.60
79645;BME280;69117;47.148;18.954;2023-08-08T09:04:15;100882.50;;;21.55;59.94
79645;BME280;69117;47.148;18.954;2023-08-08T09:07:20;100890.28;;;22.18;65.26
79645;BME280;69117;47.148;18.954;2023-08-08T09:10:24;100881.13;;;22.12;60.23
79645;BME280;69117;47.148;18.954;2023-08-08T09:13:35;100877.59;;;21.92;59.44
79645;BME280;69117;47.148;18.954;2023-08-08T09:16:37;100876.16;;;22.36;58.84
79645;BME280;69117;47.148;18.954;2023-08-08T09:19:45;100871.44;;;22.18;54.85
79645;BME280;69117;47.148;18.954;2023-08-08T09:22:48;100876.16;;;22.49;61.23
79645;BME280;69117;47.148;18.954;2023-08-08T09:25:50;100870.97;;;22.54;56.34
79645;BME280;69117;47.148;18.954;2023-08-08T09:28:52;100872.63;;;22.35;54.21
79645;BME280;69117;47.148;18.954;2023-08-08T09:31:53;100882.38;;;22.23;55.12
79645;BME280;69117;47.148;18.954;2023-08-08T09:34:56;100881.97;;;22.39;55.03
79645;BME280;69117;47.148;18.954;2023-08-08T09:37:59;100879.66;;;22.30;59.01
79645;BME280;69117;47.148;18.954;2023-08-08T09:41:01;100876.50;;;22.66;55.52
79645;BME280;69117;47.148;18.954;2023-08-08T09:44:03;100874.50;;;22.48;52.72
79645;BME280;69117;47.148;18.954;2023-08-08T09:47:05;100865.44;;;23.01;54.38
79645;BME280;69117;47.148;18.954;2023-08-08T09:50:07;100873.97;;;23.43;52.46
79645;BME280;69117;47.148;18.954;2023-08-08T09:53:09;100863.63;;;23.71;51.86
79645;BME280;69117;47.148;18.954;2023-08-08T09:56:14;100862.94;;;23.06;50.66
79645;BME280;69117;47.148;18.954;2023-08-08T09:59:16;100855.09;;;23.74;52.93
79645;BME280;69117;47.148;18.954;2023-08-08T10:02:19;100849.75;;;22.71;53.49
79645;BME280;69117;47.148;18.954;2023-08-08T10:05:21;100859.78;;;22.11;56.97
79645;BME280;69117;47.148;18.954;2023-08-08T10:08:24;100865.97;;;22.64;52.16
79645;BME280;69117;47.148;18.954;2023-08-08T10:11:26;100862.00;;;22.67;51.22
79645;BME280;69117;47.148;18.954;2023-08-08T10:14:34;100856.81;;;22.66;51.67
79645;BME280;69117;47.148;18.954;2023-08-08T10:17:37;100858.66;;;22.85;56.20
79645;BME280;69117;47.148;18.954;2023-08-08T10:20:43;100865.94;;;22.71;51.90
79645;BME280;69117;47.148;18.954;2023-08-08T10:23:47;100861.28;;;23.05;51.54
79645;BME280;69117;47.148;18.954;2023-08-08T10:26:59;100868.94;;;24.10;48.96
79645;BME280;69117;47.148;18.954;2023-08-08T10:30:08;100858.63;;;23.68;49.14
79645;BME280;69117;47.148;18.954;2023-08-08T10:33:20;100860.84;;;24.72;50.46
79645;BME280;69117;47.148;18.954;2023-08-08T10:36:23;100865.34;;;24.59;49.54
79645;BME280;69117;47.148;18.954;2023-08-08T10:39:25;100866.03;;;24.30;47.38
79645;BME280;69117;47.148;18.954;2023-08-08T10:42:28;100860.47;;;23.43;46.66
79645;BME280;69117;47.148;18.954;2023-08-08T10:45:30;100867.78;;;24.24;49.75
79645;BME280;69117;47.148;18.954;2023-08-08T10:48:32;100849.97;;;23.28;47.32
79645;BME280;69117;47.148;18.954;2023-08-08T10:51:44;100854.41;;;23.16;49.03
79645;BME280;69117;47.148;18.954;2023-08-08T10:54:52;100851.34;;;23.69;45.81
79645;BME280;69117;47.148;18.954;2023-08-08T10:58:06;100850.94;;;24.84;46.95
79645;BME280;69117;47.148;18.954;2023-08-08T11:01:08;100859.13;;;25.44;44.49
79645;BME280;69117;47.148;18.954;2023-08-08T11:04:11;100848.66;;;24.99;47.31
79645;BME280;69117;47.148;18.954;2023-08-08T11:07:14;100851.56;;;24.49;42.13
79645;BME280;69117;47.148;18.954;2023-08-08T11:10:17;100856.66;;;24.57;46.25
79645;BME280;69117;47.148;18.954;2023-08-08T11:13:19;100852.16;;;24.88;45.33
79645;BME280;69117;47.148;18.954;2023-08-08T11:16:21;100852.72;;;25.69;44.90
79645;BME280;69117;47.148;18.954;2023-08-08T11:19:22;100850.69;;;25.94;39.39
79645;BME280;69117;47.148;18.954;2023-08-08T11:22:25;100849.47;;;25.78;44.56
79645;BME280;69117;47.148;18.954;2023-08-08T11:25:29;100848.81;;;25.53;40.55
79645;BME280;69117;47.148;18.954;2023-08-08T11:28:31;100851.41;;;26.37;41.62
79645;BME280;69117;47.148;18.954;2023-08-08T11:31:36;100853.28;;;26.01;39.41
79645;BME280;69117;47.148;18.954;2023-08-08T11:34:38;100840.09;;;26.28;40.45
79645;BME280;69117;47.148;18.954;2023-08-08T11:37:40;100837.97;;;26.18;41.09
79645;BME280;69117;47.148;18.954;2023-08-08T11:40:41;100848.94;;;26.23;39.51
79645;BME280;69117;47.148;18.954;2023-08-08T11:43:44;100826.88;;;26.43;40.48
79645;BME280;69117;47.148;18.954;2023-08-08T11:46:46;100829.09;;;26.70;37.44
79645;BME280;69117;47.148;18.954;2023-08-08T11:49:48;100827.59;;;27.03;38.77
79645;BME280;69117;47.148;18.954;2023-08-08T11:52:52;100824.59;;;27.16;38.57
79645;BME280;69117;47.148;18.954;2023-08-08T11:55:57;100817.81;;;26.49;39.83
79645;BME280;69117;47.148;18.954;2023-08-08T11:58:59;100821.19;;;27.09;37.84
79645;BME280;69117;47.148;18.954;2023-08-08T12:02:09;100814.25;;;27.01;39.49
79645;BME280;69117;47.148;18.954;2023-08-08T12:05:12;100820.41;;;26.97;38.16
79645;BME280;69117;47.148;18.954;2023-08-08T12:08:18;100807.88;;;27.53;39.33
79645;BME280;69117;47.148;18.954;2023-08-08T12:11:21;100809.44;;;27.03;39.49
79645;BME280;69117;47.148;18.954;2023-08-08T12:14:26;100807.03;;;26.78;37.69
79645;BME280;69117;47.148;18.954;2023-08-08T12:17:28;100806.56;;;27.38;38.41
79645;BME280;69117;47.148;18.954;2023-08-08T12:20:30;100794.25;;;27.98;37.66
79645;BME280;69117;47.148;18.954;2023-08-08T12:23:33;100792.53;;;28.48;36.39
79645;BME280;69117;47.148;18.954;2023-08-08T12:26:35;100791.44;;;28.49;36.38
79645;BME280;69117;47.148;18.954;2023-08-08T12:29:37;100790.59;;;28.26;35.00
79645;BME280;69117;47.148;18.954;2023-08-08T12:32:39;100784.84;;;28.67;34.94
79645;BME280;69117;47.148;18.954;2023-08-08T12:35:41;100784.97;;;28.55;34.87
79645;BME280;69117;47.148;18.954;2023-08-08T12:38:43;100777.78;;;28.66;34.94
79645;BME280;69117;47.148;18.954;2023-08-08T12:41:44;100780.03;;;28.96;32.32
79645;BME280;69117;47.148;18.954;2023-08-08T12:44:46;100775.25;;;29.67;32.06
79645;BME280;69117;47.148;18.954;2023-08-08T12:47:48;100766.97;;;29.25;33.18
79645;BME280;69117;47.148;18.954;2023-08-08T12:50:50;100775.53;;;29.71;33.57
79645;BME280;69117;47.148;18.954;2023-08-08T12:53:51;100767.00;;;29.57;31.90
79645;BME280;69117;47.148;18.954;2023-08-08T12:56:53;100765.34;;;29.56;32.31
79645;BME280;69117;47.148;18.954;2023-08-08T12:59:55;100763.00;;;29.06;33.01
79645;BME280;69117;47.148;18.954;2023-08-08T13:02:56;100769.09;;;29.18;32.56
79645;BME280;69117;47.148;18.954;2023-08-08T13:06:00;100758.66;;;29.37;32.38
79645;BME280;69117;47.148;18.954;2023-08-08T13:09:01;100759.34;;;29.22;32.30
79645;BME280;69117;47.148;18.954;2023-08-08T13:12:04;100752.69;;;29.72;30.72
79645;BME280;69117;47.148;18.954;2023-08-08T13:15:06;100758.00;;;28.09;29.71
79645;BME280;69117;47.148;18.954;2023-08-08T13:18:09;100757.81;;;29.04;32.65
79645;BME280;69117;47.148;18.954;2023-08-08T13:21:11;100752.28;;;29.58;30.98
79645;BME280;69117;47.148;18.954;2023-08-08T13:24:14;100751.53;;;29.63;31.33
79645;BME280;69117;47.148;18.954;2023-08-08T13:27:15;100749.91;;;29.67;31.26
79645;BME280;69117;47.148;18.954;2023-08-08T13:30:17;100746.09;;;30.73;28.59
79645;BME280;69117;47.148;18.954;2023-08-08T13:33:19;100745.03;;;30.11;31.18
79645;BME280;69117;47.148;18.954;2023-08-08T13:36:22;100742.22;;;30.01;29.81
79645;BME280;69117;47.148;18.954;2023-08-08T13:39:24;100733.44;;;30.37;30.29
79645;BME280;69117;47.148;18.954;2023-08-08T13:42:25;100728.47;;;30.23;28.83
79645;BME280;69117;47.148;18.954;2023-08-08T13:45:27;100739.84;;;30.15;27.88
79645;BME280;69117;47.148;18.954;2023-08-08T13:48:28;100737.13;;;30.15;27.60
79645;BME280;69117;47.148;18.954;2023-08-08T13:51:30;100736.06;;;29.36;30.42
79645;BME280;69117;47.148;18.954;2023-08-08T13:54:37;100739.88;;;29.40;30.26
79645;BME280;69117;47.148;18.954;2023-08-08T13:57:39;100740.56;;;29.58;28.21
79645;BME280;69117;47.148;18.954;2023-08-08T14:00:41;100744.19;;;29.04;30.59
79645;BME280;69117;47.148;18.954;2023-08-08T14:03:42;100737.91;;;29.31;31.09
79645;BME280;69117;47.148;18.954;2023-08-08T14:06:44;100736.03;;;29.04;28.66
79645;BME280;69117;47.148;18.954;2023-08-08T14:09:46;100734.50;;;27.64;31.32
79645;BME280;69117;47.148;18.954;2023-08-08T14:12:48;100734.06;;;26.36;35.30
79645;BME280;69117;47.148;18.954;2023-08-08T14:15:49;100735.94;;;25.30;35.70
79645;BME280;69117;47.148;18.954;2023-08-08T14:18:53;100740.00;;;24.79;36.60
79645;BME280;69117;47.148;18.954;2023-08-08T14:21:55;100740.47;;;24.39;40.35
79645;BME280;69117;47.148;18.954;2023-08-08T14:24:56;100745.81;;;24.45;39.10
79645;BME280;69117;47.148;18.954;2023-08-08T14:27:58;100747.59;;;24.15;40.00
79645;BME280;69117;47.148;18.954;2023-08-08T14:31:01;100745.41;;;24.05;40.23
79645;BME280;69117;47.148;18.954;2023-08-08T14:34:03;100749.63;;;24.19;42.89
79645;BME280;69117;47.148;18.954;2023-08-08T14:37:06;100741.78;;;23.93;40.45
79645;BME280;69117;47.148;18.954;2023-08-08T14:40:08;100745.34;;;23.93;41.66
79645;BME280;69117;47.148;18.954;2023-08-08T14:43:10;100731.88;;;23.62;42.87
79645;BME280;69117;47.148;18.954;2023-08-08T14:46:13;100740.97;;;23.67;45.31
79645;BME280;69117;47.148;18.954;2023-08-08T14:49:16;100734.78;;;23.35;39.82
79645;BME280;69117;47.148;18.954;2023-08-08T14:52:18;100726.94;;;23.59;43.31
79645;BME280;69117;47.148;18.954;2023-08-08T14:55:20;100727.56;;;24.22;38.78
79645;BME280;69117;47.148;18.954;2023-08-08T14:58:22;100736.03;;;24.08;42.63
79645;BME280;69117;47.148;18.954;2023-08-08T15:01:26;100732.06;;;23.67;46.54
79645;BME280;69117;47.148;18.954;2023-08-08T15:04:28;100733.94;;;24.28;43.61
79645;BME280;69117;47.148;18.954;2023-08-08T15:07:29;100737.91;;;24.07;42.04
79645;BME280;69117;47.148;18.954;2023-08-08T15:10:31;100736.91;;;25.71;40.85
79645;BME280;69117;47.148;18.954;2023-08-08T15:13:36;100724.47;;;25.70;39.65
79645;BME280;69117;47.148;18.954;2023-08-08T15:16:37;100733.63;;;25.69;36.93
79645;BME280;69117;47.148;18.954;2023-08-08T15:19:39;100724.91;;;27.57;33.65
79645;BME280;69117;47.148;18.954;2023-08-08T15:22:41;100719.38;;;27.18;36.72
79645;BME280;69117;47.148;18.954;2023-08-08T15:25:43;100721.50;;;26.07;38.58
79645;BME280;69117;47.148;18.954;2023-08-08T15:28:45;100723.72;;;24.97;43.60
79645;BME280;69117;47.148;18.954;2023-08-08T15:31:46;100723.72;;;24.67;42.97
79645;BME280;69117;47.148;18.954;2023-08-08T15:34:48;100725.53;;;23.99;43.90
79645;BME280;69117;47.148;18.954;2023-08-08T15:37:50;100716.41;;;23.50;45.92